createdAt,value
2018-12-14T00:00:54.139Z,26.87
2018-12-14T00:03:22.720Z,27.37
2018-12-14T00:05:51.320Z,27.10
2018-12-14T00:08:19.929Z,26.10
2018-12-14T00:10:48.518Z,25.12
2018-12-14T00:13:18.081Z,26.25
2018-12-14T00:15:46.706Z,26.50
2018-12-14T00:18:15.300Z,26.48
2018-12-14T00:20:43.910Z,26.95
2018-12-14T00:23:12.488Z,25.82
2018-12-14T00:25:41.083Z,26.68
2018-12-14T00:28:09.628Z,26.37
2018-12-14T00:30:38.317Z,25.43
2018-12-14T00:33:06.896Z,26.12
2018-12-14T00:35:35.483Z,25.20
2018-12-14T00:38:04.048Z,27.35
2018-12-14T00:40:32.594Z,26.05
2018-12-14T00:43:01.154Z,25.10
2018-12-14T00:45:29.714Z,24.67
2018-12-14T00:47:58.290Z,27.70
2018-12-14T00:50:26.850Z,25.45
2018-12-14T00:52:55.399Z,26.07
2018-12-14T00:55:23.979Z,27.25
2018-12-14T00:57:52.514Z,24.72
2018-12-14T01:00:21.096Z,28.75
2018-12-14T01:02:49.819Z,26.15
2018-12-14T01:05:18.374Z,27.37
2018-12-14T01:07:46.962Z,26.17
2018-12-14T01:10:15.531Z,26.73
2018-12-14T01:12:44.164Z,26.30
2018-12-14T01:15:13.031Z,26.17
2018-12-14T01:17:41.619Z,26.00
2018-12-14T01:20:10.512Z,25.85
2018-12-14T01:22:39.109Z,25.82
2018-12-14T01:25:07.815Z,26.40
2018-12-14T01:27:36.362Z,26.15
2018-12-14T01:30:05.726Z,25.37
2018-12-14T01:32:34.286Z,25.85
2018-12-14T01:35:02.854Z,25.85
2018-12-14T01:37:31.411Z,24.77
2018-12-14T01:39:59.999Z,24.75
2018-12-14T01:42:28.555Z,23.10
2018-12-14T01:44:59.275Z,25.23
2018-12-14T01:47:27.901Z,26.90
2018-12-14T01:49:56.476Z,24.55
2018-12-14T01:52:25.240Z,24.45
2018-12-14T01:54:53.939Z,25.25
2018-12-14T01:57:22.722Z,24.90
2018-12-14T01:59:51.300Z,24.50
2018-12-14T02:02:19.872Z,23.60
2018-12-14T02:04:48.476Z,23.65
2018-12-14T02:07:17.076Z,23.30
2018-12-14T02:09:45.667Z,22.32
2018-12-14T02:12:14.328Z,23.45
2018-12-14T02:14:42.916Z,24.05
2018-12-14T02:17:11.502Z,25.10
2018-12-14T02:19:40.132Z,23.90
2018-12-14T02:22:08.729Z,24.50
2018-12-14T02:24:37.339Z,23.27
2018-12-14T02:27:05.939Z,23.10
2018-12-14T02:29:34.518Z,23.20
2018-12-14T02:32:03.075Z,23.42
2018-12-14T02:34:31.783Z,22.73
2018-12-14T02:37:00.368Z,22.60
2018-12-14T02:39:28.915Z,23.62
2018-12-14T02:41:57.496Z,22.20
2018-12-14T02:44:26.047Z,23.10
2018-12-14T02:46:54.603Z,24.23
2018-12-14T02:49:23.177Z,23.60
2018-12-14T02:51:51.763Z,22.67
2018-12-14T02:54:20.409Z,23.87
2018-12-14T02:56:49.071Z,23.15
2018-12-14T02:59:17.730Z,23.73
2018-12-14T03:01:46.449Z,23.92
2018-12-14T03:04:15.005Z,22.65
2018-12-14T03:06:43.589Z,26.05
2018-12-14T03:09:12.187Z,22.42
2018-12-14T03:11:40.776Z,22.62
2018-12-14T03:14:09.499Z,24.18
2018-12-14T03:16:38.043Z,22.95
2018-12-14T03:19:06.604Z,23.18
2018-12-14T03:21:35.211Z,23.45
2018-12-14T03:24:03.847Z,24.90
2018-12-14T03:26:32.408Z,23.35
2018-12-14T03:29:00.988Z,22.75
2018-12-14T03:31:29.585Z,22.30
2018-12-14T03:33:58.168Z,24.02
2018-12-14T03:36:26.718Z,23.92
2018-12-14T03:38:55.283Z,23.55
2018-12-14T03:41:23.847Z,24.80
2018-12-14T03:43:52.439Z,22.98
2018-12-14T03:46:21.085Z,23.18
2018-12-14T03:48:49.665Z,21.52
2018-12-14T03:51:20.251Z,21.00
2018-12-14T03:53:48.826Z,22.80
2018-12-14T03:56:17.445Z,22.00
2018-12-14T03:58:46.000Z,22.58
2018-12-14T04:01:14.705Z,21.75
2018-12-14T04:03:43.267Z,22.82
2018-12-14T04:06:11.864Z,22.00
2018-12-14T04:08:40.432Z,22.37
2018-12-14T04:11:09.015Z,24.12
2018-12-14T04:13:37.576Z,22.77
2018-12-14T04:16:06.175Z,21.77
2018-12-14T04:18:34.745Z,21.95
2018-12-14T04:21:03.416Z,22.48
2018-12-14T04:23:32.035Z,21.97
2018-12-14T04:26:00.626Z,22.67
2018-12-14T04:28:29.195Z,21.93
2018-12-14T04:30:57.895Z,22.42
2018-12-14T04:33:26.467Z,21.23
2018-12-14T04:35:55.266Z,24.07
2018-12-14T04:38:24.021Z,22.10
2018-12-14T04:40:52.600Z,22.93
2018-12-14T04:43:21.149Z,22.50
2018-12-14T04:45:49.714Z,23.52
2018-12-14T04:48:18.300Z,22.35
2018-12-14T04:50:46.902Z,20.17
2018-12-14T04:53:15.491Z,21.60
2018-12-14T04:55:44.090Z,20.92
2018-12-14T04:58:12.670Z,22.58
2018-12-14T05:00:41.273Z,20.95
2018-12-14T05:03:09.826Z,20.50
2018-12-14T05:05:38.362Z,21.02
2018-12-14T05:08:06.931Z,19.60
2018-12-14T05:10:35.486Z,21.33
2018-12-14T05:13:04.090Z,21.42
2018-12-14T05:15:32.680Z,23.25
2018-12-14T05:18:01.267Z,24.15
2018-12-14T05:20:29.855Z,24.40
2018-12-14T05:22:58.494Z,22.50
2018-12-14T05:25:27.086Z,22.65
2018-12-14T05:27:55.752Z,20.95
2018-12-14T05:30:26.409Z,24.37
2018-12-14T05:32:54.990Z,23.50
2018-12-14T05:35:23.564Z,23.70
2018-12-14T05:37:52.122Z,21.97
2018-12-14T05:40:20.691Z,21.50
2018-12-14T05:42:49.251Z,22.77
2018-12-14T05:45:17.810Z,21.35
2018-12-14T05:47:46.379Z,21.87
2018-12-14T05:50:14.995Z,21.75
2018-12-14T05:52:43.562Z,21.48
2018-12-14T05:55:12.121Z,20.85
2018-12-14T05:57:40.675Z,21.68
2018-12-14T06:00:11.417Z,22.50
2018-12-14T06:02:39.977Z,21.45
2018-12-14T06:05:08.780Z,23.00
2018-12-14T06:07:37.375Z,22.90
2018-12-14T06:10:07.134Z,22.67
2018-12-14T06:12:35.840Z,23.20
2018-12-14T06:15:04.943Z,22.55
2018-12-14T06:17:33.582Z,24.80
2018-12-14T06:20:02.295Z,23.67
2018-12-14T06:22:30.885Z,22.50
2018-12-14T06:24:59.466Z,24.10
2018-12-14T06:27:28.050Z,23.83
2018-12-14T06:29:56.652Z,24.40
2018-12-14T06:32:25.206Z,24.15
2018-12-14T06:34:53.779Z,26.33
2018-12-14T06:37:22.591Z,26.07
2018-12-14T06:39:51.190Z,24.72
2018-12-14T06:42:20.214Z,23.90
2018-12-14T06:44:48.794Z,23.42
2018-12-14T06:47:17.368Z,24.43
2018-12-14T06:49:45.982Z,24.07
2018-12-14T06:52:14.602Z,24.87
2018-12-14T06:54:43.140Z,25.20
2018-12-14T06:57:11.724Z,24.98
2018-12-14T06:59:40.311Z,25.65
2018-12-14T07:02:08.876Z,26.50
2018-12-14T07:04:37.431Z,26.33
2018-12-14T07:07:06.022Z,27.87
2018-12-14T07:09:34.966Z,26.68
2018-12-14T07:12:03.545Z,27.55
2018-12-14T07:14:32.112Z,27.80
2018-12-14T07:17:00.672Z,24.32
2018-12-14T07:19:29.208Z,22.70
2018-12-14T07:21:57.780Z,22.80
2018-12-14T07:24:26.374Z,26.82
2018-12-14T07:26:55.195Z,26.95
2018-12-14T07:29:23.852Z,26.87
2018-12-14T07:31:52.391Z,25.05
2018-12-14T07:34:20.958Z,24.63
2018-12-14T07:36:49.497Z,25.40
2018-12-14T07:39:18.074Z,26.73
2018-12-14T07:41:46.622Z,23.92
2018-12-14T07:44:15.244Z,26.07
2018-12-14T07:46:43.841Z,26.87
2018-12-14T07:49:12.409Z,26.50
2018-12-14T07:51:40.982Z,27.75
2018-12-14T07:54:09.540Z,22.80
2018-12-14T07:56:38.067Z,28.17
2018-12-14T07:59:07.603Z,26.20
2018-12-14T08:01:36.208Z,20.85
2018-12-14T08:04:04.863Z,20.60
2018-12-14T08:06:33.438Z,19.90
2018-12-14T08:09:02.001Z,19.82
2018-12-14T08:11:30.536Z,20.68
2018-12-14T08:13:59.096Z,18.90
2018-12-14T08:16:27.630Z,19.27
2018-12-14T08:18:56.177Z,18.55
2018-12-14T08:21:24.755Z,18.90
2018-12-14T08:23:53.351Z,19.10
2018-12-14T08:26:21.887Z,20.15
2018-12-14T08:28:50.404Z,20.37
2018-12-14T08:31:19.024Z,20.85
2018-12-14T08:33:47.647Z,19.57
2018-12-14T08:36:16.243Z,19.70
2018-12-14T08:38:44.822Z,18.60
2018-12-14T08:41:13.481Z,19.30
2018-12-14T08:43:42.040Z,20.23
2018-12-14T08:46:10.569Z,18.70
2018-12-14T08:48:39.078Z,18.98
2018-12-14T08:51:07.629Z,18.70
2018-12-14T08:53:36.300Z,19.40
2018-12-14T08:56:04.983Z,20.60
2018-12-14T08:58:33.537Z,20.35
2018-12-14T09:01:02.037Z,19.87
2018-12-14T09:03:30.581Z,17.65
2018-12-14T09:05:59.126Z,20.23
2018-12-14T09:08:27.663Z,20.23
2018-12-14T09:10:56.211Z,20.57
2018-12-14T09:13:24.754Z,22.25
2018-12-14T09:15:53.322Z,21.65
2018-12-14T09:18:28.140Z,21.85
2018-12-14T09:21:01.125Z,20.92
2018-12-14T09:23:27.502Z,21.93
2018-12-14T09:25:56.092Z,22.85
2018-12-14T09:28:24.621Z,23.12
2018-12-14T09:30:53.118Z,45.83
2018-12-14T09:33:21.649Z,21.10
2018-12-14T09:35:50.205Z,20.82
2018-12-14T09:38:18.754Z,21.65
2018-12-14T09:40:47.284Z,22.22
2018-12-14T09:43:15.840Z,22.50
2018-12-14T09:45:44.380Z,23.83
2018-12-14T09:48:12.947Z,21.68
2018-12-14T09:50:41.478Z,22.70
2018-12-14T09:53:12.062Z,22.73
2018-12-14T09:55:40.589Z,24.00
2018-12-14T09:58:09.360Z,23.77
2018-12-14T10:00:37.890Z,24.40
2018-12-14T10:03:06.433Z,24.00
2018-12-14T10:05:35.049Z,23.57
2018-12-14T10:08:03.636Z,21.85
2018-12-14T10:10:32.173Z,24.65
2018-12-14T10:13:00.721Z,22.67
2018-12-14T10:15:29.275Z,25.80
2018-12-14T10:17:57.838Z,24.27
2018-12-14T10:20:26.441Z,24.57
2018-12-14T10:22:54.988Z,24.43
2018-12-14T10:25:23.560Z,23.85
2018-12-14T10:27:52.083Z,24.67
2018-12-14T10:30:20.637Z,24.63
2018-12-14T10:32:49.179Z,24.12
2018-12-14T10:35:17.772Z,24.98
2018-12-14T10:37:46.335Z,25.92
2018-12-14T10:40:14.899Z,24.85
2018-12-14T10:42:43.572Z,24.98
2018-12-14T10:45:12.242Z,25.05
2018-12-14T10:47:40.845Z,24.60
2018-12-14T10:50:09.471Z,24.55
2018-12-14T10:52:38.020Z,25.85
2018-12-14T10:55:07.070Z,25.08
2018-12-14T10:57:35.848Z,25.25
2018-12-14T11:00:07.434Z,24.47
2018-12-14T11:02:35.975Z,25.97
2018-12-14T11:05:04.791Z,24.18
2018-12-14T11:07:33.343Z,24.75
2018-12-14T11:10:02.035Z,26.87
2018-12-14T11:12:30.573Z,25.50
2018-12-14T11:14:59.095Z,26.25
2018-12-14T11:17:27.665Z,28.00
2018-12-14T11:19:56.211Z,25.90
2018-12-14T11:22:24.840Z,27.70
2018-12-14T11:24:53.482Z,25.25
2018-12-14T11:27:22.012Z,29.15
2018-12-14T11:29:50.593Z,26.20
2018-12-14T11:32:19.205Z,26.60
2018-12-14T11:34:47.722Z,26.33
2018-12-14T11:37:16.333Z,37.48
2018-12-14T11:39:44.874Z,32.58
2018-12-14T11:42:13.419Z,28.60
2018-12-14T11:44:42.204Z,29.30
2018-12-14T11:47:10.785Z,29.82
2018-12-14T11:49:39.326Z,28.70
2018-12-14T11:52:09.069Z,28.70
2018-12-14T11:54:37.866Z,26.37
2018-12-14T11:57:06.404Z,28.27
2018-12-14T11:59:34.954Z,30.02
2018-12-14T12:02:03.506Z,29.98
2018-12-14T12:04:32.048Z,30.10
2018-12-14T12:07:00.598Z,30.80
2018-12-14T12:09:29.144Z,31.02
2018-12-14T12:11:57.798Z,31.02
2018-12-14T12:14:27.116Z,31.00
2018-12-14T12:16:55.854Z,33.15
2018-12-14T12:19:24.417Z,31.85
2018-12-14T12:21:53.033Z,33.20
2018-12-14T12:24:21.702Z,33.40
2018-12-14T12:26:50.272Z,34.67
2018-12-14T12:29:18.826Z,33.08
2018-12-14T12:31:47.393Z,34.67
2018-12-14T12:34:15.936Z,30.17
2018-12-14T12:36:44.430Z,34.05
2018-12-14T12:39:12.971Z,31.73
2018-12-14T12:41:41.519Z,34.10
2018-12-14T12:44:10.050Z,33.63
2018-12-14T12:46:38.585Z,30.68
2018-12-14T12:49:07.138Z,32.50
2018-12-14T12:51:35.840Z,33.10
2018-12-14T12:54:04.363Z,32.35
2018-12-14T12:56:33.153Z,35.28
2018-12-14T12:59:01.710Z,30.72
2018-12-14T13:01:30.236Z,31.23
2018-12-14T13:03:58.848Z,31.30
2018-12-14T13:06:27.485Z,32.48
2018-12-14T13:08:56.019Z,29.25
2018-12-14T13:11:24.532Z,28.30
2018-12-14T13:13:53.075Z,25.90
2018-12-14T13:16:21.619Z,27.77
2018-12-14T13:18:50.142Z,27.45
2018-12-14T13:21:18.670Z,26.42
2018-12-14T13:23:47.204Z,26.68
2018-12-14T13:26:15.746Z,26.20
2018-12-14T13:28:44.267Z,26.48
2018-12-14T13:31:12.786Z,25.50
2018-12-14T13:33:41.320Z,25.72
2018-12-14T13:36:09.928Z,26.77
2018-12-14T13:38:38.467Z,27.05
2018-12-14T13:41:07.014Z,28.10
2018-12-14T13:43:35.587Z,28.90
2018-12-14T13:46:04.272Z,26.75
2018-12-14T13:48:32.837Z,24.90
2018-12-14T13:51:01.357Z,24.47
2018-12-14T13:53:29.905Z,23.52
2018-12-14T13:55:58.426Z,21.77
2018-12-14T13:58:26.934Z,24.02
2018-12-14T14:00:55.484Z,25.48
2018-12-14T14:03:24.096Z,29.42
2018-12-14T14:05:52.609Z,26.17
2018-12-14T14:08:21.122Z,27.20
2018-12-14T14:10:49.840Z,28.50
2018-12-14T14:13:18.403Z,25.85
2018-12-14T14:15:50.646Z,27.93
2018-12-14T14:18:17.496Z,27.93
2018-12-14T14:20:46.042Z,31.05
2018-12-14T14:23:14.573Z,31.30
2018-12-14T14:25:43.808Z,32.50
2018-12-14T14:28:12.427Z,30.27
2018-12-14T14:30:40.974Z,32.70
2018-12-14T14:33:09.537Z,34.58
2018-12-14T14:35:38.069Z,33.67
2018-12-14T14:38:06.583Z,33.85
2018-12-14T14:40:35.111Z,31.75
2018-12-14T14:43:03.653Z,32.55
2018-12-14T14:45:32.212Z,36.00
2018-12-14T14:48:00.732Z,32.25
2018-12-14T14:50:29.266Z,31.37
2018-12-14T14:52:57.756Z,31.97
2018-12-14T14:55:26.282Z,27.90
2018-12-14T14:57:54.943Z,31.55
2018-12-14T15:00:23.490Z,32.88
2018-12-14T15:02:52.164Z,32.80
2018-12-14T15:05:20.697Z,37.88
2018-12-14T15:07:49.211Z,31.57
2018-12-14T15:10:17.737Z,34.45
2018-12-14T15:12:46.335Z,34.20
2018-12-14T15:15:14.842Z,34.67
2018-12-14T15:17:43.358Z,32.73
2018-12-14T15:20:12.048Z,32.83
2018-12-14T15:22:40.618Z,32.23
2018-12-14T15:25:09.306Z,30.85
2018-12-14T15:27:37.839Z,30.92
2018-12-14T15:30:06.542Z,28.60
2018-12-14T15:32:35.088Z,28.40
2018-12-14T15:35:03.774Z,29.07
2018-12-14T15:37:32.853Z,28.83
2018-12-14T15:40:01.380Z,26.68
2018-12-14T15:42:29.922Z,29.50
2018-12-14T15:44:58.485Z,28.83
2018-12-14T15:47:27.027Z,29.52
2018-12-14T15:49:55.582Z,29.32
2018-12-14T15:52:24.143Z,25.77
2018-12-14T15:54:52.696Z,25.90
2018-12-14T15:57:21.772Z,27.90
2018-12-14T15:59:50.376Z,25.55
2018-12-14T16:02:18.912Z,25.60
2018-12-14T16:04:47.619Z,27.17
2018-12-14T16:07:16.171Z,27.62
2018-12-14T16:09:44.686Z,25.62
2018-12-14T16:12:13.258Z,25.62
2018-12-14T16:14:43.578Z,25.45
2018-12-14T16:17:12.210Z,26.33
2018-12-14T16:19:40.867Z,27.32
2018-12-14T16:22:09.428Z,26.65
2018-12-14T16:24:41.786Z,22.58
2018-12-14T16:27:10.388Z,25.43
2018-12-14T16:29:39.031Z,25.12
2018-12-14T16:32:07.592Z,24.27
2018-12-14T16:34:36.146Z,24.95
2018-12-14T16:37:04.713Z,25.17
2018-12-14T16:39:33.315Z,26.93
2018-12-14T16:42:01.972Z,26.15
2018-12-14T16:44:30.566Z,25.17
2018-12-14T16:46:59.442Z,26.42
2018-12-14T16:49:29.148Z,25.48
2018-12-14T16:51:57.684Z,26.23
2018-12-14T16:54:26.354Z,25.32
2018-12-14T16:56:54.941Z,25.80
2018-12-14T16:59:23.469Z,24.82
2018-12-14T17:01:52.000Z,25.62
2018-12-14T17:04:20.504Z,26.05
2018-12-14T17:06:49.099Z,25.65
2018-12-14T17:09:17.634Z,27.35
2018-12-14T17:11:46.328Z,25.43
2018-12-14T17:14:14.873Z,26.80
2018-12-14T17:16:43.405Z,26.10
2018-12-14T17:19:11.977Z,24.55
2018-12-14T17:21:40.542Z,24.67
2018-12-14T17:24:09.099Z,26.48
2018-12-14T17:26:37.670Z,25.88
2018-12-14T17:29:06.244Z,25.48
2018-12-14T17:31:34.787Z,27.67
2018-12-14T17:34:03.461Z,25.97
2018-12-14T17:36:32.017Z,26.42
2018-12-14T17:39:00.547Z,24.92
2018-12-14T17:41:29.076Z,25.48
2018-12-14T17:43:57.621Z,26.48
2018-12-14T17:46:26.136Z,25.30
2018-12-14T17:48:54.628Z,26.23
2018-12-14T17:51:23.216Z,24.57
2018-12-14T17:53:51.701Z,26.33
2018-12-14T17:56:20.225Z,26.20
2018-12-14T17:58:48.746Z,25.97
2018-12-14T18:01:17.260Z,23.90
2018-12-14T18:03:45.776Z,24.27
2018-12-14T18:06:14.261Z,24.80
2018-12-14T18:08:42.767Z,24.10
2018-12-14T18:11:11.308Z,25.17
2018-12-14T18:13:39.843Z,24.57
2018-12-14T18:16:08.549Z,24.37
2018-12-14T18:18:37.161Z,24.23
2018-12-14T18:21:05.695Z,22.60
2018-12-14T18:23:34.227Z,23.77
2018-12-14T18:26:02.816Z,23.85
2018-12-14T18:28:31.359Z,21.93
2018-12-14T18:30:59.900Z,23.52
2018-12-14T18:33:29.586Z,21.07
2018-12-14T18:35:58.286Z,22.52
2018-12-14T18:38:26.920Z,24.40
2018-12-14T18:40:55.512Z,23.18
2018-12-14T18:43:24.124Z,24.25
2018-12-14T18:45:53.404Z,26.75
2018-12-14T18:48:22.363Z,25.40
2018-12-14T18:50:51.020Z,25.27
2018-12-14T18:53:19.563Z,25.32
2018-12-14T18:55:48.120Z,25.92
2018-12-14T18:58:16.731Z,25.43
2018-12-14T19:00:45.251Z,26.35
2018-12-14T19:03:13.790Z,24.37
2018-12-14T19:05:42.310Z,22.55
2018-12-14T19:08:10.846Z,23.40
2018-12-14T19:10:39.389Z,23.05
2018-12-14T19:13:07.917Z,23.38
2018-12-14T19:15:36.445Z,22.98
2018-12-14T19:18:05.937Z,22.48
2018-12-14T19:20:34.497Z,22.30
2018-12-14T19:23:03.045Z,22.87
2018-12-14T19:25:31.596Z,23.25
2018-12-14T19:28:00.176Z,21.17
2018-12-14T19:30:28.709Z,23.10
2018-12-14T19:32:57.227Z,20.92
2018-12-14T19:35:26.037Z,19.98
2018-12-14T19:37:54.573Z,21.35
2018-12-14T19:40:23.109Z,21.05
2018-12-14T19:42:51.647Z,24.15
2018-12-14T19:45:20.247Z,22.15
2018-12-14T19:47:48.797Z,22.17
2018-12-14T19:50:17.331Z,21.60
2018-12-14T19:52:46.032Z,21.65
2018-12-14T19:55:14.569Z,22.50
2018-12-14T19:57:43.116Z,21.80
2018-12-14T20:00:12.637Z,21.40
2018-12-14T20:02:41.186Z,21.45
2018-12-14T20:05:09.769Z,22.32
2018-12-14T20:07:38.352Z,21.93
2018-12-14T20:10:07.801Z,20.20
2018-12-14T20:12:36.307Z,22.80
2018-12-14T20:15:06.207Z,23.35
2018-12-14T20:17:34.749Z,22.73
2018-12-14T20:20:03.540Z,20.23
2018-12-14T20:22:32.126Z,21.40
2018-12-14T20:25:00.722Z,22.17
2018-12-14T20:27:29.277Z,21.65
2018-12-14T20:29:57.820Z,22.85
2018-12-14T20:32:26.420Z,23.32
2018-12-14T20:34:54.982Z,24.98
2018-12-14T20:37:23.490Z,24.30
2018-12-14T20:41:59.709Z,24.77
2018-12-14T20:44:28.235Z,22.48
2018-12-14T20:46:56.798Z,26.62
2018-12-14T20:49:25.369Z,24.18
2018-12-14T20:51:53.907Z,26.33
2018-12-14T20:54:22.614Z,24.98
2018-12-14T20:56:51.753Z,26.95
2018-12-14T20:59:20.496Z,25.70
2018-12-14T21:01:49.030Z,27.93
2018-12-14T21:04:17.561Z,25.35
2018-12-14T21:06:46.105Z,27.27
2018-12-14T21:09:14.641Z,26.80
2018-12-14T21:11:43.170Z,24.92
2018-12-14T21:14:11.729Z,26.93
2018-12-14T21:16:40.241Z,24.80
2018-12-14T21:19:08.820Z,26.25
2018-12-14T21:21:37.574Z,24.72
2018-12-14T21:24:06.097Z,25.12
2018-12-14T21:26:34.642Z,28.15
2018-12-14T21:29:03.165Z,27.48
2018-12-14T21:31:33.173Z,28.40
2018-12-14T21:34:03.922Z,25.23
2018-12-14T21:36:32.441Z,26.97
2018-12-14T21:39:00.972Z,24.30
2018-12-14T21:41:29.488Z,27.15
2018-12-14T21:43:58.000Z,26.80
2018-12-14T21:46:32.400Z,26.80
2018-12-14T21:48:57.100Z,25.60
2018-12-14T21:51:25.614Z,28.40
2018-12-14T21:53:54.131Z,28.00
2018-12-14T21:56:22.654Z,27.62
2018-12-14T21:58:51.159Z,26.33
2018-12-14T22:01:19.653Z,25.77
2018-12-14T22:03:48.170Z,28.27
2018-12-14T22:06:16.777Z,28.23
2018-12-14T22:08:45.294Z,28.90
2018-12-14T22:11:13.808Z,27.10
2018-12-14T22:13:42.356Z,27.67
2018-12-14T22:16:10.868Z,25.55
2018-12-14T22:18:39.448Z,27.75
2018-12-14T22:21:07.969Z,26.93
2018-12-14T22:23:36.491Z,20.95
2018-12-14T22:26:05.089Z,25.52
2018-12-14T22:28:33.612Z,22.50
2018-12-14T22:31:02.165Z,22.58
2018-12-14T22:33:31.267Z,23.42
2018-12-14T22:35:59.814Z,23.15
2018-12-14T22:38:28.336Z,20.08
2018-12-14T22:40:56.853Z,22.20
2018-12-14T22:43:25.376Z,20.40
2018-12-14T22:45:53.935Z,18.12
2018-12-14T22:48:22.484Z,17.50
2018-12-14T22:50:51.016Z,16.27
2018-12-14T22:53:19.520Z,16.42
2018-12-14T22:55:48.057Z,18.02
2018-12-14T22:58:16.586Z,16.15
2018-12-14T23:00:50.555Z,17.35
2018-12-14T23:03:19.443Z,16.50
2018-12-14T23:05:48.271Z,16.55
2018-12-14T23:08:16.812Z,17.55
2018-12-14T23:10:45.336Z,17.67
2018-12-14T23:13:13.894Z,18.02
2018-12-14T23:15:42.402Z,18.52
2018-12-14T23:18:10.919Z,19.10
2018-12-14T23:20:39.436Z,18.05
2018-12-14T23:23:07.975Z,18.70
2018-12-14T23:25:36.590Z,18.32
2018-12-14T23:28:05.156Z,16.10
2018-12-14T23:30:33.689Z,18.30
2018-12-14T23:33:02.204Z,17.85
2018-12-14T23:35:30.731Z,17.67
2018-12-14T23:37:59.242Z,18.60
2018-12-14T23:40:27.750Z,18.95
2018-12-14T23:42:56.669Z,17.95
2018-12-14T23:45:25.207Z,18.02
2018-12-14T23:47:53.711Z,17.25
2018-12-14T23:50:22.232Z,16.65
2018-12-14T23:52:50.718Z,15.30
2018-12-14T23:55:19.212Z,16.85
2018-12-14T23:57:47.732Z,16.85
